createdAt,value
2019-03-06T00:00:02.347Z,9.13
2019-03-06T00:02:34.785Z,7.53
2019-03-06T00:05:06.197Z,8.03
2019-03-06T00:07:36.889Z,8.23
2019-03-06T00:10:22.458Z,8.57
2019-03-06T00:12:53.490Z,8.00
2019-03-06T00:15:24.172Z,7.00
2019-03-06T00:17:55.370Z,7.20
2019-03-06T00:20:26.325Z,8.37
2019-03-06T00:22:57.000Z,8.33
2019-03-06T00:25:28.014Z,8.97
2019-03-06T00:27:58.984Z,9.57
2019-03-06T00:30:31.632Z,7.63
2019-03-06T00:33:02.617Z,7.67
2019-03-06T00:35:36.209Z,7.57
2019-03-06T00:38:08.113Z,7.27
2019-03-06T00:41:17.141Z,6.40
2019-03-06T00:43:49.124Z,8.68
2019-03-06T00:46:20.140Z,7.20
2019-03-06T00:48:51.660Z,7.43
2019-03-06T00:51:23.246Z,8.03
2019-03-06T00:53:55.226Z,7.43
2019-03-06T00:56:26.429Z,6.53
2019-03-06T00:58:57.117Z,7.07
2019-03-06T01:01:28.546Z,7.00
2019-03-06T01:03:59.989Z,6.07
2019-03-06T01:06:32.484Z,7.40
2019-03-06T01:09:05.079Z,7.47
2019-03-06T01:11:37.353Z,6.43
2019-03-06T01:14:08.380Z,8.43
2019-03-06T01:16:39.698Z,6.80
2019-03-06T01:19:10.816Z,7.77
2019-03-06T01:21:42.028Z,7.47
2019-03-06T01:24:12.698Z,7.87
2019-03-06T01:26:43.444Z,7.67
2019-03-06T01:29:14.110Z,7.63
2019-03-06T01:31:44.789Z,7.47
2019-03-06T01:34:33.908Z,7.87
2019-03-06T01:37:32.873Z,9.50
2019-03-06T01:40:26.612Z,8.67
2019-03-06T01:43:25.327Z,8.33
2019-03-06T01:45:56.412Z,7.90
2019-03-06T01:48:28.005Z,7.60
2019-03-06T01:50:58.757Z,8.20
2019-03-06T01:53:29.777Z,7.37
2019-03-06T01:56:01.802Z,7.63
2019-03-06T01:58:32.526Z,6.67
2019-03-06T03:00:50.878Z,8.83
2019-03-06T03:03:55.437Z,10.97
2019-03-06T03:06:34.032Z,7.63
2019-03-06T03:09:12.930Z,7.70
2019-03-06T03:11:43.893Z,7.47
2019-03-06T03:14:14.566Z,10.80
2019-03-06T03:16:45.527Z,8.23
2019-03-06T03:19:17.539Z,9.60
2019-03-06T03:21:48.277Z,8.83
2019-03-06T03:24:19.012Z,8.37
2019-03-06T03:26:50.321Z,9.67
2019-03-06T03:29:20.987Z,8.87
2019-03-06T03:31:52.607Z,9.97
2019-03-06T03:34:24.065Z,9.50
2019-03-06T03:36:54.916Z,10.53
2019-03-06T03:39:25.610Z,11.10
2019-03-06T03:41:56.334Z,9.77
2019-03-06T03:44:27.077Z,9.77
2019-03-06T03:46:58.024Z,9.10
2019-03-06T03:49:28.698Z,9.47
2019-03-06T03:51:59.681Z,9.23
2019-03-06T03:54:30.699Z,8.43
2019-03-06T03:57:01.786Z,8.67
2019-03-06T03:59:33.009Z,10.27
2019-03-06T04:02:03.674Z,9.30
2019-03-06T04:04:35.305Z,10.33
2019-03-06T04:07:06.137Z,10.73
2019-03-06T04:09:37.106Z,10.13
2019-03-06T04:12:07.853Z,11.80
2019-03-06T04:14:38.870Z,10.23
2019-03-06T04:17:09.838Z,9.53
2019-03-06T04:19:41.577Z,9.80
2019-03-06T04:22:12.823Z,12.13
2019-03-06T04:24:43.578Z,9.53
2019-03-06T04:27:14.345Z,12.47
2019-03-06T04:29:45.369Z,9.60
2019-03-06T04:32:16.036Z,10.10
2019-03-06T04:34:47.050Z,11.03
2019-03-06T04:37:17.804Z,10.03
2019-03-06T04:39:49.434Z,9.60
2019-03-06T04:42:20.104Z,10.13
2019-03-06T04:44:51.801Z,8.50
2019-03-06T04:47:22.546Z,9.93
2019-03-06T04:49:53.221Z,11.97
2019-03-06T04:52:24.592Z,9.03
2019-03-06T04:54:56.864Z,10.47
2019-03-06T04:57:27.556Z,11.10
2019-03-06T04:59:58.237Z,12.53
2019-03-06T05:02:30.025Z,11.73
2019-03-06T05:05:00.777Z,11.57
2019-03-06T05:07:31.532Z,11.07
2019-03-06T05:10:03.476Z,11.13
2019-03-06T05:12:35.130Z,10.37
2019-03-06T05:15:06.901Z,10.50
2019-03-06T05:17:43.952Z,11.67
2019-03-06T05:20:14.660Z,9.63
2019-03-06T05:22:45.328Z,11.67
2019-03-06T05:25:16.425Z,10.43
2019-03-06T05:27:47.377Z,11.27
2019-03-06T05:30:19.969Z,11.83
2019-03-06T05:32:50.793Z,11.20
2019-03-06T05:36:20.448Z,9.63
2019-03-06T05:39:10.898Z,9.17
2019-03-06T05:41:42.280Z,9.53
2019-03-06T05:44:13.301Z,11.83
2019-03-06T05:46:43.970Z,11.30
2019-03-06T05:49:14.657Z,10.43
2019-03-06T05:51:45.405Z,10.93
2019-03-06T05:54:16.422Z,12.70
2019-03-06T05:56:48.479Z,9.97
2019-03-06T05:59:19.887Z,10.63
2019-03-06T06:01:51.996Z,10.50
2019-03-06T06:04:23.029Z,10.63
2019-03-06T06:06:53.716Z,11.30
2019-03-06T06:09:24.836Z,11.50
2019-03-06T06:11:57.313Z,11.80
2019-03-06T06:14:28.267Z,10.17
2019-03-06T06:16:59.230Z,11.17
2019-03-06T06:19:30.337Z,12.30
2019-03-06T06:22:18.016Z,11.27
2019-03-06T06:24:49.041Z,10.87
2019-03-06T06:27:20.057Z,12.07
2019-03-06T06:29:50.998Z,9.73
2019-03-06T06:32:22.041Z,10.57
2019-03-06T06:34:53.004Z,10.63
2019-03-06T06:37:24.289Z,11.20
2019-03-06T06:39:55.135Z,12.40
2019-03-06T06:42:25.818Z,12.37
2019-03-06T06:44:56.846Z,11.03
2019-03-06T06:47:28.212Z,11.07
2019-03-06T06:49:59.654Z,11.87
2019-03-06T06:53:13.332Z,11.87
2019-03-06T06:56:13.814Z,12.70
2019-03-06T06:59:02.021Z,11.30
2019-03-06T07:02:39.960Z,9.93
2019-03-06T07:05:31.418Z,12.43
2019-03-06T07:08:33.559Z,10.27
2019-03-06T07:11:21.634Z,9.80
2019-03-06T07:14:17.385Z,11.10
2019-03-06T07:17:05.748Z,10.23
2019-03-06T07:19:58.173Z,9.97
2019-03-06T07:22:39.144Z,10.37
2019-03-06T07:25:43.721Z,10.20
2019-03-06T07:28:45.501Z,12.27
2019-03-06T07:31:34.738Z,10.83
2019-03-06T07:34:36.919Z,11.03
2019-03-06T07:37:14.546Z,9.73
2019-03-06T07:40:07.009Z,13.57
2019-03-06T07:42:46.441Z,7.90
2019-03-06T07:46:09.059Z,6.87
2019-03-06T07:49:15.594Z,7.37
2019-03-06T07:52:24.699Z,7.33
2019-03-06T07:55:04.739Z,7.67
2019-03-06T07:57:56.308Z,7.23
2019-03-06T08:00:28.141Z,7.47
2019-03-06T08:03:05.749Z,8.00
2019-03-06T08:05:36.482Z,6.47
2019-03-06T08:08:07.233Z,7.03
2019-03-06T08:10:39.628Z,7.07
2019-03-06T08:13:16.637Z,7.33
2019-03-06T08:15:58.177Z,5.87
2019-03-06T08:18:40.359Z,5.50
2019-03-06T08:21:21.405Z,6.23
2019-03-06T08:24:13.868Z,5.77
2019-03-06T08:26:44.762Z,5.73
2019-03-06T08:29:15.840Z,4.60
2019-03-06T08:31:52.893Z,5.37
2019-03-06T08:34:23.895Z,5.40
2019-03-06T08:36:54.707Z,5.57
2019-03-06T08:39:25.725Z,5.03
2019-03-06T08:41:56.736Z,4.63
2019-03-06T08:44:28.265Z,4.30
2019-03-06T08:47:19.524Z,4.40
2019-03-06T08:50:15.259Z,3.27
2019-03-06T08:53:03.377Z,4.73
2019-03-06T08:55:53.289Z,3.97
2019-03-06T08:58:38.040Z,4.30
2019-03-06T09:01:43.345Z,4.30
2019-03-06T09:04:36.783Z,3.50
2019-03-06T09:07:41.753Z,3.97
2019-03-06T09:10:49.897Z,3.27
2019-03-06T09:13:32.752Z,3.33
2019-03-06T09:16:34.102Z,3.50
2019-03-06T09:19:23.804Z,3.53
2019-03-06T09:21:59.785Z,3.33
2019-03-06T09:24:41.937Z,3.53
2019-03-06T09:27:47.836Z,3.27
2019-03-06T09:30:29.056Z,3.70
2019-03-06T09:33:19.053Z,2.87
2019-03-06T09:36:11.875Z,3.07
2019-03-06T09:39:10.552Z,3.23
2019-03-06T09:41:47.055Z,3.60
2019-03-06T09:44:36.680Z,2.67
2019-03-06T09:47:24.368Z,2.93
2019-03-06T09:50:08.615Z,2.97
2019-03-06T09:53:01.781Z,3.23
2019-03-06T09:55:50.606Z,3.27
2019-03-06T09:58:43.377Z,2.57
2019-03-06T10:01:36.054Z,2.77
2019-03-06T10:04:41.204Z,3.90
2019-03-06T10:07:32.547Z,3.07
2019-03-06T10:10:11.876Z,3.30
2019-03-06T10:13:00.086Z,2.80
2019-03-06T10:15:40.836Z,2.43
2019-03-06T10:18:17.494Z,3.30
2019-03-06T10:20:48.597Z,2.83
2019-03-06T10:23:19.781Z,2.20
2019-03-06T10:25:52.200Z,2.50
2019-03-06T10:28:27.800Z,2.03
2019-03-06T10:31:02.367Z,3.20
2019-03-06T10:33:29.494Z,3.00
2019-03-06T10:36:00.462Z,2.97
2019-03-06T10:38:32.990Z,2.83
2019-03-06T10:41:03.809Z,3.17
2019-03-06T10:43:34.910Z,2.33
2019-03-06T10:46:06.716Z,3.50
2019-03-06T10:48:37.452Z,2.80
2019-03-06T10:51:08.698Z,3.37
2019-03-06T10:53:42.319Z,2.30
2019-03-06T10:56:12.412Z,3.33
2019-03-06T10:58:44.015Z,2.80
2019-03-06T11:01:14.971Z,2.77
2019-03-06T11:04:10.486Z,2.83
2019-03-06T11:06:41.890Z,3.40
2019-03-06T11:09:13.785Z,3.80
2019-03-06T11:11:44.998Z,3.60
2019-03-06T11:14:16.408Z,3.17
2019-03-06T11:16:47.813Z,1.80
2019-03-06T11:19:18.766Z,2.37
2019-03-06T11:21:49.934Z,2.10
2019-03-06T11:24:21.881Z,1.63
2019-03-06T11:26:52.764Z,2.07
2019-03-06T11:29:23.809Z,1.80
2019-03-06T11:31:54.673Z,1.67
2019-03-06T11:34:25.921Z,1.70
2019-03-06T11:36:56.986Z,1.10
2019-03-06T11:39:28.825Z,1.47
2019-03-06T11:41:59.592Z,1.40
2019-03-06T11:44:30.340Z,1.10
2019-03-06T11:47:03.740Z,1.10
2019-03-06T11:49:34.468Z,1.20
2019-03-06T11:52:06.573Z,1.33
2019-03-06T11:54:37.626Z,1.23
2019-03-06T11:57:09.237Z,1.47
2019-03-06T11:59:40.105Z,1.73
2019-03-06T12:02:11.546Z,1.10
2019-03-06T12:04:42.684Z,1.10
2019-03-06T12:07:13.697Z,0.80
2019-03-06T12:09:45.093Z,1.30
2019-03-06T12:12:16.481Z,1.20
2019-03-06T12:14:48.405Z,1.07
2019-03-06T12:17:20.824Z,1.10
2019-03-06T12:19:51.968Z,1.40
2019-03-06T12:22:23.941Z,1.13
2019-03-06T12:24:55.119Z,1.20
2019-03-06T12:27:26.456Z,1.00
2019-03-06T12:29:59.638Z,1.30
2019-03-06T12:32:30.681Z,0.83
2019-03-06T12:35:02.273Z,1.10
2019-03-06T12:37:33.209Z,1.10
2019-03-06T12:40:11.985Z,1.23
2019-03-06T12:42:38.530Z,1.20
2019-03-06T12:45:13.045Z,0.90
2019-03-06T12:47:45.180Z,1.20
2019-03-06T12:50:18.647Z,1.13
2019-03-06T12:52:49.899Z,1.10
2019-03-06T12:55:20.660Z,1.10
2019-03-06T12:57:59.084Z,0.87
2019-03-06T13:00:26.614Z,1.00
2019-03-06T13:02:57.753Z,1.10
2019-03-06T13:05:28.609Z,1.23
2019-03-06T13:08:03.668Z,1.87
2019-03-06T13:10:34.705Z,2.97
2019-03-06T13:13:05.461Z,2.00
2019-03-06T13:15:36.649Z,1.40
2019-03-06T13:18:07.909Z,1.70
2019-03-06T13:20:39.168Z,1.20
2019-03-06T13:23:10.376Z,0.80
2019-03-06T13:25:41.410Z,1.10
2019-03-06T13:28:13.257Z,2.00
2019-03-06T13:30:44.105Z,1.00
2019-03-06T13:33:29.518Z,1.33
2019-03-06T13:36:02.011Z,1.73
2019-03-06T13:38:32.768Z,1.17
2019-03-06T13:41:03.536Z,1.30
2019-03-06T13:43:34.647Z,3.77
2019-03-06T13:46:05.402Z,3.23
2019-03-06T13:48:38.055Z,3.07
2019-03-06T13:51:09.653Z,2.00
2019-03-06T13:53:40.941Z,2.20
2019-03-06T13:56:11.701Z,3.60
2019-03-06T13:58:42.803Z,3.87
2019-03-06T14:01:13.998Z,6.73
2019-03-06T14:03:44.957Z,8.80
2019-03-06T14:06:16.377Z,5.43
2019-03-06T14:08:47.691Z,2.20
2019-03-06T14:11:18.829Z,2.17
2019-03-06T14:13:50.214Z,2.57
2019-03-06T14:16:21.173Z,4.70
2019-03-06T14:18:52.791Z,3.70
2019-03-06T14:21:23.886Z,4.70
2019-03-06T14:23:55.193Z,1.33
2019-03-06T14:26:26.840Z,2.57
2019-03-06T14:28:58.013Z,3.10
2019-03-06T14:31:29.038Z,2.80
2019-03-06T14:33:59.795Z,4.63
2019-03-06T14:36:31.473Z,5.40
2019-03-06T14:39:02.810Z,0.70
2019-03-06T14:41:35.357Z,1.17
2019-03-06T14:44:07.637Z,1.37
2019-03-06T14:46:39.290Z,2.07
2019-03-06T14:49:10.153Z,1.90
2019-03-06T14:51:41.529Z,1.97
2019-03-06T14:54:12.660Z,1.40
2019-03-06T14:56:43.794Z,0.80
2019-03-06T14:59:14.881Z,0.87
2019-03-06T15:01:45.734Z,1.13
2019-03-06T15:04:16.521Z,0.90
2019-03-06T15:06:47.767Z,1.13
2019-03-06T15:09:23.604Z,2.10
2019-03-06T15:11:55.220Z,0.80
2019-03-06T15:14:35.754Z,1.10
2019-03-06T15:17:03.013Z,0.50
2019-03-06T15:19:34.643Z,0.60
2019-03-06T15:22:05.618Z,0.50
2019-03-06T15:24:41.416Z,1.00
2019-03-06T15:27:09.899Z,2.10
2019-03-06T15:29:41.905Z,3.47
2019-03-06T15:32:12.679Z,2.00
2019-03-06T15:34:43.837Z,0.60
2019-03-06T15:37:14.875Z,1.43
2019-03-06T15:39:48.744Z,0.97
2019-03-06T15:42:19.720Z,0.60
2019-03-06T15:44:51.889Z,0.73
2019-03-06T15:47:23.005Z,1.50
2019-03-06T15:49:53.757Z,6.20
2019-03-06T15:52:25.154Z,4.57
2019-03-06T15:54:55.921Z,10.57
2019-03-06T15:57:26.963Z,4.80
2019-03-06T15:59:58.569Z,2.97
2019-03-06T16:02:29.661Z,3.00
2019-03-06T16:05:00.528Z,2.27
2019-03-06T16:07:32.433Z,2.77
2019-03-06T16:10:04.053Z,1.53
2019-03-06T16:12:34.886Z,0.70
2019-03-06T16:15:06.319Z,1.00
2019-03-06T16:17:37.185Z,0.80
2019-03-06T16:20:15.893Z,0.60
2019-03-06T16:22:47.161Z,0.90
2019-03-06T16:25:18.289Z,1.03
2019-03-06T16:27:49.313Z,0.90
2019-03-06T16:30:20.466Z,1.10
2019-03-06T16:32:51.240Z,2.90
2019-03-06T16:35:22.513Z,1.50
2019-03-06T16:37:53.266Z,1.60
2019-03-06T16:40:25.186Z,2.10
2019-03-06T16:42:56.245Z,1.53
2019-03-06T16:45:28.289Z,1.30
2019-03-06T16:48:00.251Z,2.50
2019-03-06T16:50:31.002Z,1.90
2019-03-06T16:53:02.044Z,1.70
2019-03-06T16:55:33.142Z,1.50
2019-03-06T16:58:04.862Z,2.60
2019-03-06T17:00:36.491Z,3.73
2019-03-06T17:03:08.228Z,3.07
2019-03-06T17:05:39.543Z,3.57
2019-03-06T17:08:10.686Z,2.00
2019-03-06T17:10:41.812Z,1.77
2019-03-06T17:13:13.711Z,6.50
2019-03-06T17:15:45.156Z,2.23
2019-03-06T17:18:18.805Z,3.10
2019-03-06T17:20:49.873Z,2.87
2019-03-06T17:23:21.781Z,2.83
2019-03-06T17:25:52.569Z,2.87
2019-03-06T17:28:23.957Z,2.60
2019-03-06T17:30:54.859Z,2.30
2019-03-06T17:33:25.732Z,3.20
2019-03-06T17:35:57.249Z,2.83
2019-03-06T17:38:28.851Z,2.07
2019-03-06T17:40:59.641Z,2.60
2019-03-06T17:43:30.607Z,2.00
2019-03-06T17:46:01.714Z,2.53
2019-03-06T17:48:32.793Z,2.40
2019-03-06T17:51:03.543Z,1.40
2019-03-06T17:53:34.641Z,1.57
2019-03-06T17:56:05.590Z,1.73
2019-03-06T17:58:37.022Z,2.77
2019-03-06T18:01:12.361Z,3.10
2019-03-06T18:03:52.160Z,2.17
2019-03-06T18:06:23.397Z,1.37
2019-03-06T18:08:54.994Z,1.63
2019-03-06T18:11:26.454Z,2.00
2019-03-06T18:13:58.052Z,1.33
2019-03-06T18:16:29.089Z,1.60
2019-03-06T18:19:01.591Z,1.27
2019-03-06T18:21:32.970Z,2.63
2019-03-06T18:24:04.624Z,7.67
2019-03-06T18:26:36.852Z,7.50
2019-03-06T18:29:09.309Z,3.97
2019-03-06T18:31:40.081Z,7.43
2019-03-06T18:34:11.176Z,2.97
2019-03-06T18:36:41.920Z,3.90
2019-03-06T18:39:19.690Z,2.77
2019-03-06T18:41:50.445Z,5.03
2019-03-06T18:44:21.476Z,7.53
2019-03-06T18:46:52.221Z,10.77
2019-03-06T18:49:22.904Z,6.03
2019-03-06T18:51:54.006Z,5.00
2019-03-06T18:54:25.098Z,8.20
2019-03-06T18:56:56.145Z,6.57
2019-03-06T18:59:27.142Z,4.97
2019-03-06T19:01:58.333Z,1.70
2019-03-06T19:04:29.462Z,1.87
2019-03-06T19:07:00.227Z,3.33
2019-03-06T19:09:31.083Z,6.10
2019-03-06T19:12:02.251Z,4.00
2019-03-06T19:14:33.717Z,3.67
2019-03-06T19:17:04.819Z,2.97
2019-03-06T19:19:36.277Z,3.23
2019-03-06T19:22:07.809Z,2.50
2019-03-06T19:24:39.829Z,4.17
2019-03-06T19:27:12.673Z,2.93
2019-03-06T19:29:44.543Z,3.60
2019-03-06T19:32:15.670Z,3.13
2019-03-06T19:34:47.653Z,3.17
2019-03-06T19:37:19.598Z,3.07
2019-03-06T19:39:50.927Z,3.93
2019-03-06T19:42:21.987Z,2.97
2019-03-06T19:44:53.449Z,3.13
2019-03-06T19:47:24.907Z,3.67
2019-03-06T19:49:56.952Z,3.33
2019-03-06T19:52:28.328Z,3.83
2019-03-06T19:54:59.089Z,6.50
2019-03-06T19:57:39.733Z,8.60
2019-03-06T20:00:11.023Z,5.30
2019-03-06T20:02:42.301Z,5.00
2019-03-06T20:05:14.028Z,5.47
2019-03-06T20:07:47.051Z,5.07
2019-03-06T20:10:18.496Z,6.17
2019-03-06T20:12:49.349Z,4.87
2019-03-06T20:15:21.324Z,3.67
2019-03-06T20:17:52.625Z,3.03
2019-03-06T20:20:23.827Z,2.77
2019-03-06T20:22:56.546Z,3.50
2019-03-06T20:25:28.520Z,3.63
2019-03-06T20:27:59.687Z,7.47
2019-03-06T20:30:30.438Z,6.23
2019-03-06T20:33:02.421Z,6.77
2019-03-06T20:35:34.784Z,5.30
2019-03-06T20:38:05.749Z,4.97
2019-03-06T20:40:36.512Z,3.30
2019-03-06T20:43:07.823Z,3.00
2019-03-06T20:45:38.645Z,3.60
2019-03-06T20:48:09.764Z,4.00
2019-03-06T20:50:41.421Z,3.40
2019-03-06T20:53:14.497Z,4.17
2019-03-06T20:55:45.277Z,4.87
2019-03-06T20:58:16.456Z,3.00
2019-03-06T21:00:47.858Z,2.50
2019-03-06T21:03:19.032Z,3.07
2019-03-06T21:05:50.413Z,2.57
2019-03-06T21:08:22.578Z,1.97
2019-03-06T21:10:53.358Z,2.67
2019-03-06T21:13:24.798Z,4.00
2019-03-06T21:15:55.810Z,4.40
2019-03-06T21:18:27.726Z,4.20
2019-03-06T21:20:58.784Z,3.00
2019-03-06T21:23:29.876Z,2.37
2019-03-06T21:26:01.489Z,3.53
2019-03-06T21:28:33.980Z,2.50
2019-03-06T21:31:04.736Z,3.30
2019-03-06T21:33:35.738Z,3.20
2019-03-06T21:36:06.585Z,2.30
2019-03-06T21:38:37.353Z,3.80
2019-03-06T21:41:08.701Z,2.47
2019-03-06T21:43:40.310Z,3.27
2019-03-06T21:46:11.941Z,2.93
2019-03-06T21:48:42.972Z,2.93
2019-03-06T21:51:13.992Z,3.53
2019-03-06T21:53:45.064Z,3.63
2019-03-06T21:56:18.497Z,2.97
2019-03-06T21:58:49.248Z,3.47
2019-03-06T22:01:19.995Z,3.00
2019-03-06T22:03:50.741Z,2.47
2019-03-06T22:06:22.806Z,2.50
2019-03-06T22:08:53.551Z,1.93
2019-03-06T22:11:24.845Z,2.57
2019-03-06T22:13:55.779Z,2.73
2019-03-06T22:16:27.321Z,2.33
2019-03-06T22:18:58.070Z,2.43
2019-03-06T22:21:28.817Z,3.07
2019-03-06T22:24:01.398Z,2.40
2019-03-06T22:26:33.343Z,2.47
2019-03-06T22:29:04.351Z,2.00
2019-03-06T22:31:35.434Z,2.07
2019-03-06T22:34:07.241Z,2.80
2019-03-06T22:36:38.847Z,2.30
2019-03-06T22:39:12.096Z,4.50
2019-03-06T22:41:42.860Z,4.57
2019-03-06T22:44:13.884Z,2.53
2019-03-06T22:46:44.993Z,1.63
2019-03-06T22:49:16.070Z,1.57
2019-03-06T22:51:46.937Z,1.43
2019-03-06T22:54:17.780Z,1.37
2019-03-06T22:56:50.007Z,1.50
2019-03-06T22:59:21.053Z,1.57
2019-03-06T23:01:53.232Z,1.60
2019-03-06T23:04:24.918Z,1.40
2019-03-06T23:06:55.962Z,1.47
2019-03-06T23:09:27.004Z,1.27
2019-03-06T23:11:57.736Z,1.80
2019-03-06T23:14:28.709Z,1.20
2019-03-06T23:16:59.454Z,1.23
2019-03-06T23:19:30.543Z,1.10
2019-03-06T23:22:01.596Z,1.80
2019-03-06T23:24:32.708Z,1.10
2019-03-06T23:27:03.769Z,1.40
2019-03-06T23:29:34.974Z,1.43
2019-03-06T23:32:05.729Z,1.77
2019-03-06T23:34:36.708Z,1.60
2019-03-06T23:37:07.461Z,2.10
2019-03-06T23:39:38.568Z,1.70
2019-03-06T23:42:09.674Z,1.50
2019-03-06T23:44:40.422Z,2.10
2019-03-06T23:47:11.181Z,1.80
2019-03-06T23:49:42.119Z,1.10
2019-03-06T23:52:21.392Z,1.20
2019-03-06T23:54:52.135Z,1.20
2019-03-06T23:57:23.731Z,1.43
2019-03-06T23:59:54.485Z,1.30
